Time;durP1;ratioP1;P1;durP2;ratioP2;P2;SDS_P1;SDS_P2;PMS_P1;PMS_P2;Temp;Humidity;BMP_temperature;BMP_pressure;BME280_temperature;BME280_humidity;BME280_pressure;Samples;Min_cycle;Max_cycle;Signal;HPM_P1;HPM_P2
2021/01/29 00:00:56;;;;;;;5.68;3.60;;;;;;;22.72;34.62;94234.22;4972218;28;20516;-73
2021/01/29 00:03:21;;;;;;;6.00;4.10;;;;;;;22.70;34.58;94231.28;4971403;28;20055;-73
2021/01/29 00:05:52;;;;;;;6.22;4.60;;;;;;;22.65;34.77;94218.53;4972046;28;20034;-74
2021/01/29 00:08:17;;;;;;;;;;;;;;;22.72;34.75;94234.22;4972329;28;20112;-73
2021/01/29 00:10:42;;;;;;;6.30;3.65;;;;;;;22.71;34.88;94232.75;4970612;28;20379;-73
2021/01/29 00:13:10;;;;;;;6.78;3.55;;;;;;;22.68;34.86;94237.25;4971342;28;20030;-73
2021/01/29 00:15:36;;;;;;;5.47;3.78;;;;;;;22.65;34.61;94234.84;4970708;28;20027;-74
2021/01/29 00:18:01;;;;;;;6.18;4.10;;;;;;;22.65;34.69;94229.41;4971928;28;20046;-73
2021/01/29 00:20:27;;;;;;;5.93;3.70;;;;;;;22.61;34.74;94234.44;4971952;28;20035;-73
2021/01/29 00:22:53;;;;;;;5.75;3.75;;;;;;;22.63;34.63;94237.34;4970118;28;20104;-73
2021/01/29 00:25:33;;;;;;;5.82;4.25;;;;;;;22.62;34.73;94235.91;4971369;28;20431;-73
2021/01/29 00:27:59;;;;;;;7.07;4.35;;;;;;;22.61;34.55;94239.88;4971207;28;20490;-73
2021/01/29 00:30:26;;;;;;;6.13;4.10;;;;;;;22.63;34.85;94231.91;4971611;28;20039;-73
2021/01/29 00:32:51;;;;;;;8.38;4.40;;;;;;;22.61;34.60;94235.16;4971090;28;20030;-73
2021/01/29 00:35:17;;;;;;;6.90;4.28;;;;;;;22.62;34.92;94252.22;4971180;28;20037;-73
2021/01/29 00:37:43;;;;;;;6.38;4.07;;;;;;;22.61;34.67;94251.47;4971408;28;20023;-73
2021/01/29 00:40:09;;;;;;;5.82;3.78;;;;;;;22.62;34.64;94246.78;4971165;28;20031;-73
2021/01/29 00:42:34;;;;;;;7.50;4.30;;;;;;;22.62;34.48;94246.78;4971231;28;20031;-73
2021/01/29 00:45:00;;;;;;;7.05;4.00;;;;;;;22.64;34.81;94252.44;4970846;28;20042;-73
2021/01/29 00:47:25;;;;;;;7.22;4.32;;;;;;;22.64;34.80;94249.72;4970900;28;20097;-73
2021/01/29 00:49:51;;;;;;;6.55;4.53;;;;;;;22.61;34.63;94239.88;4971211;28;20043;-73
2021/01/29 00:52:16;;;;;;;5.75;4.18;;;;;;;22.60;34.76;94243.84;4970950;28;20027;-73
2021/01/29 00:54:42;;;;;;;7.20;4.32;;;;;;;22.58;34.61;94235.47;4970827;28;20031;-74
2021/01/29 00:57:09;;;;;;;6.45;4.35;;;;;;;22.54;34.48;94240.47;4970853;28;20023;-74
2021/01/29 00:59:35;;;;;;;5.30;3.85;;;;;;;22.51;34.58;94241.53;4971088;28;20427;-74
2021/01/29 01:02:00;;;;;;;6.60;4.43;;;;;;;22.50;34.59;94256.41;4971201;28;20046;-73
2021/01/29 01:04:26;;;;;;;6.22;4.07;;;;;;;22.52;34.71;94245.72;4970718;28;20059;-74
2021/01/29 01:06:51;;;;;;;5.97;4.35;;;;;;;22.55;34.43;94236.50;4970561;28;20027;-74
2021/01/29 01:09:17;;;;;;;6.38;3.97;;;;;;;22.53;34.51;94250.66;4970902;28;20440;-74
2021/01/29 01:11:42;;;;;;;6.63;4.10;;;;;;;22.55;34.58;94236.50;4970519;28;20492;-74
2021/01/29 01:14:08;;;;;;;6.80;4.20;;;;;;;22.53;34.75;94230.88;4970680;28;20034;-73
2021/01/29 01:16:33;;;;;;;7.05;4.43;;;;;;;22.53;34.61;94239.03;4969352;28;20026;-73
2021/01/29 01:18:59;;;;;;;5.80;4.20;;;;;;;22.53;34.50;94244.47;4970658;28;20027;-73
2021/01/29 01:21:24;;;;;;;6.35;4.18;;;;;;;22.52;34.54;94229.41;4970907;28;20027;-73
2021/01/29 01:23:50;;;;;;;5.95;4.18;;;;;;;22.49;34.52;94230.44;4970441;28;20026;-73
2021/01/29 01:26:15;;;;;;;6.35;4.22;;;;;;;22.54;34.48;94218.72;4968857;28;20072;-73
2021/01/29 01:28:40;;;;;;;6.32;4.45;;;;;;;22.52;34.53;94211.06;4970190;28;20039;-73
2021/01/29 01:31:06;;;;;;;6.32;4.25;;;;;;;22.53;34.60;94201.66;4970431;28;20030;-73
2021/01/29 01:33:31;;;;;;;6.55;4.10;;;;;;;22.50;34.63;94196.53;4970293;28;20097;-73
2021/01/29 01:35:57;;;;;;;6.75;4.05;;;;;;;22.49;34.66;94184.19;4970299;28;20035;-73
2021/01/29 01:38:22;;;;;;;5.68;4.15;;;;;;;22.46;34.81;94174.34;4970301;28;20485;-72
2021/01/29 01:40:48;;;;;;;6.20;4.05;;;;;;;22.46;34.69;94185.22;4970414;28;20488;-73
2021/01/29 01:43:13;;;;;;;5.40;3.75;;;;;;;22.45;34.69;94172.88;4970285;28;20113;-74
2021/01/29 01:46:03;;;;;;;5.85;4.18;;;;;;;22.36;34.55;94159.72;4970274;28;20481;-73
2021/01/29 01:48:38;;;;;;;5.97;3.75;;;;;;;22.45;34.63;94172.88;4970157;28;20126;-74
2021/01/29 01:51:04;;;;;;;5.82;3.95;;;;;;;22.43;34.57;94180.84;4970115;28;20066;-73
2021/01/29 01:53:34;;;;;;;6.10;4.30;;;;;;;22.41;34.45;94178.63;4970278;28;20026;-74
2021/01/29 01:56:09;;;;;;;6.05;4.20;;;;;;;22.41;34.60;94177.91;4969100;28;20055;-73
2021/01/29 01:58:35;;;;;;;6.53;4.57;;;;;;;22.41;34.54;94177.91;4968867;28;20034;-73
2021/01/29 02:01:00;;;;;;;6.28;4.03;;;;;;;22.43;34.56;94175.41;4970152;28;20026;-73
2021/01/29 02:03:29;;;;;;;7.53;4.25;;;;;;;22.45;34.52;94175.59;4970018;28;20148;-73
2021/01/29 02:05:54;;;;;;;6.38;4.20;;;;;;;22.43;34.31;94187.03;4968592;28;20034;-74
2021/01/29 02:08:20;;;;;;;5.47;4.07;;;;;;;22.40;34.56;94154.69;4968922;28;20038;-73
2021/01/29 02:10:45;;;;;;;6.82;4.65;;;;;;;22.41;34.65;94172.47;4969938;28;20023;-73
2021/01/29 02:13:11;;;;;;;6.22;4.00;;;;;;;22.40;34.45;94171.00;4969950;28;20038;-73
2021/01/29 02:15:38;;;;;;;5.50;3.88;;;;;;;22.39;34.69;94168.81;4969881;28;20030;-73
2021/01/29 02:18:21;;;;;;;5.80;3.88;;;;;;;22.41;34.60;94177.19;4968662;28;20396;-73
2021/01/29 02:21:25;;;;;;;5.28;3.70;;;;;;;22.41;34.43;94169.75;4970039;28;20539;-74
2021/01/29 02:24:21;;;;;;;5.93;4.03;;;;;;;22.43;34.51;94159.81;4970214;28;20061;-74
2021/01/29 02:27:05;;;;;;;6.30;4.57;;;;;;;22.40;34.46;94160.13;4968499;28;20484;-73
2021/01/29 02:29:48;;;;;;;6.57;3.80;;;;;;;22.39;34.68;94166.09;4969727;28;20039;-73
2021/01/29 02:32:37;;;;;;;5.75;4.07;;;;;;;22.35;34.61;94163.69;4968690;28;20053;-73
2021/01/29 02:35:18;;;;;;;7.07;4.10;;;;;;;22.30;34.45;94167.25;4968725;28;20031;-73
2021/01/29 02:38:02;;;;;;;5.95;4.38;;;;;;;22.35;34.67;94152.81;4970183;28;20488;-74
2021/01/29 02:40:29;;;;;;;6.93;4.20;;;;;;;22.40;34.51;94153.97;4973552;28;20492;-73
2021/01/29 02:43:05;;;;;;;5.30;3.65;;;;;;;22.37;34.52;94153.00;4973234;28;20101;-73
2021/01/29 02:45:49;;;;;;;6.30;4.00;;;;;;;22.38;34.57;94143.59;4972408;28;20039;-73
2021/01/29 02:48:38;;;;;;;6.82;4.25;;;;;;;22.39;34.60;94145.06;4972914;28;20074;-73
2021/01/29 02:51:16;;;;;;;5.63;4.18;;;;;;;22.32;34.50;94145.69;4973419;28;20029;-73
2021/01/29 02:53:45;;;;;;;6.38;4.10;;;;;;;22.35;34.58;94141.94;4972204;28;20034;-73
2021/01/29 02:56:13;;;;;;;5.35;3.70;;;;;;;22.36;34.61;94143.41;4971849;28;20042;-74
2021/01/29 02:58:41;;;;;;;5.95;3.72;;;;;;;22.24;34.54;94109.50;4973023;28;20542;-73
2021/01/29 03:01:18;;;;;;;5.35;3.70;;;;;;;22.39;34.32;94133.44;4971941;28;20023;-73
2021/01/29 03:03:56;;;;;;;5.63;3.65;;;;;;;22.36;34.45;94121.63;4971875;28;20051;-72
2021/01/29 03:06:27;;;;;;;6.10;4.00;;;;;;;22.31;34.55;94103.41;4972703;28;20081;-73
2021/01/29 03:09:20;;;;;;;5.88;4.07;;;;;;;22.32;34.46;94121.22;4973007;28;20042;-73
2021/01/29 03:11:56;;;;;;;6.03;3.90;;;;;;;22.30;34.49;94118.28;4949611;28;20532;-73
2021/01/29 03:14:47;;;;;;;6.05;3.90;;;;;;;22.32;34.34;94120.50;4956843;28;20041;-73
2021/01/29 03:17:20;;;;;;;5.63;3.80;;;;;;;22.35;34.39;94114.00;4971767;28;20027;-73
2021/01/29 03:20:02;;;;;;;5.40;3.60;;;;;;;22.34;34.41;94129.56;4971375;28;20038;-73
2021/01/29 03:22:34;;;;;;;5.88;3.80;;;;;;;22.34;34.25;94113.25;4971811;28;20039;-73
2021/01/29 03:25:08;;;;;;;5.07;3.58;;;;;;;22.35;34.34;94108.56;4971512;28;20033;-73
2021/01/29 03:27:45;;;;;;;5.85;3.97;;;;;;;22.29;34.41;94116.81;4971247;28;20041;-73
2021/01/29 03:30:16;;;;;;;5.40;4.03;;;;;;;22.31;34.40;94114.28;4971310;28;20023;-73
2021/01/29 03:32:41;;;;;;;5.15;3.63;;;;;;;22.29;34.43;94105.94;4971524;28;20023;-73
2021/01/29 03:35:08;;;;;;;5.95;3.75;;;;;;;22.30;34.39;94085.66;4971361;28;20105;-73
2021/01/29 03:37:41;;;;;;;4.95;3.60;;;;;;;22.31;34.42;94092.53;4972711;28;20023;-73
2021/01/29 03:40:07;;;;;;;5.53;3.78;;;;;;;22.31;34.42;94103.41;4977201;28;20071;-73
2021/01/29 03:43:05;;;;;;;5.47;3.67;;;;;;;22.29;34.61;94100.50;4979138;28;20027;-73
2021/01/29 03:46:10;;;;;;;5.50;3.42;;;;;;;22.31;34.52;94092.53;4977899;28;20027;-73
2021/01/29 03:49:01;;;;;;;5.35;3.55;;;;;;;22.35;34.46;94103.84;4976864;28;20066;-73
2021/01/29 03:51:48;;;;;;;5.00;3.25;;;;;;;22.33;34.36;94090.03;4975700;28;20024;-73
2021/01/29 03:54:20;;;;;;;6.00;3.92;;;;;;;22.30;34.44;94101.97;4972666;28;20019;-73
2021/01/29 03:57:22;;;;;;;5.78;3.75;;;;;;;22.30;34.47;94112.84;4971234;28;20026;-73
2021/01/29 04:00:09;;;;;;;4.88;3.47;;;;;;;22.28;34.37;94107.19;4972193;28;20066;-74
2021/01/29 04:03:06;;;;;;;5.65;3.92;;;;;;;22.29;34.41;94116.81;4971885;28;20222;-73
2021/01/29 04:06:03;;;;;;;4.70;3.42;;;;;;;22.32;34.31;94104.91;4963645;28;20050;-73
2021/01/29 04:08:31;;;;;;;4.90;3.63;;;;;;;22.33;34.27;94106.38;4986995;28;20023;-74
2021/01/29 04:10:58;;;;;;;5.45;3.65;;;;;;;22.28;34.49;94099.03;4972031;28;20034;-74
2021/01/29 04:13:31;;;;;;;5.78;3.67;;;;;;;22.27;34.53;94105.75;4970653;28;20038;-73
2021/01/29 04:15:56;;;;;;;5.22;3.40;;;;;;;22.23;34.26;94099.16;4970120;28;20591;-73
2021/01/29 04:18:24;;;;;;;4.88;3.40;;;;;;;22.25;34.41;94105.50;4970523;28;20030;-73
2021/01/29 04:21:01;;;;;;;5.60;3.47;;;;;;;22.25;34.24;94113.66;4970621;28;20073;-73
2021/01/29 04:23:39;;;;;;;5.63;3.47;;;;;;;22.29;34.34;94091.63;4970440;28;20027;-73
2021/01/29 04:26:16;;;;;;;4.75;3.47;;;;;;;22.32;34.40;94102.16;4955532;28;20046;-74
2021/01/29 04:28:44;;;;;;;5.40;3.72;;;;;;;22.31;34.26;94103.41;4970564;28;20030;-74
2021/01/29 04:31:10;;;;;;;5.05;3.40;;;;;;;22.28;34.47;94101.75;4970315;28;20026;-76
2021/01/29 04:33:41;;;;;;;5.22;3.40;;;;;;;22.31;34.25;94114.28;4959823;28;20456;-75
2021/01/29 04:36:08;;;;;;;4.68;3.40;;;;;;;22.34;34.36;94079.88;4970784;28;20066;-72
2021/01/29 04:38:36;;;;;;;4.93;3.30;;;;;;;22.36;34.30;94102.59;4970013;28;20158;-72
2021/01/29 04:41:23;;;;;;;5.55;3.25;;;;;;;22.33;34.31;94079.16;4969395;28;20124;-76
2021/01/29 04:44:00;;;;;;;5.28;3.50;;;;;;;22.35;34.36;94092.25;4954385;28;20054;-75
2021/01/29 04:46:41;;;;;;;5.35;3.50;;;;;;;22.40;34.42;94122.03;4969716;28;20038;-75
2021/01/29 04:49:09;;;;;;;5.03;3.40;;;;;;;22.41;34.29;94107.91;4969357;28;20467;-74
2021/01/29 04:51:41;;;;;;;5.45;3.50;;;;;;;22.46;34.06;94103.63;4970868;28;20029;-74
2021/01/29 04:54:43;;;;;;;5.72;3.40;;;;;;;22.51;34.16;94127.25;4970869;28;20038;-74
2021/01/29 04:57:37;;;;;;;4.38;3.22;;;;;;;22.59;34.13;94114.50;4970637;28;20456;-73
2021/01/29 05:00:16;;;;;;;5.00;3.20;;;;;;;22.64;33.87;94113.66;4969738;28;20500;-73
2021/01/29 05:02:50;;;;;;;5.32;3.58;;;;;;;22.66;34.05;94105.69;4968848;28;20042;-75
2021/01/29 05:05:32;;;;;;;4.60;3.28;;;;;;;22.71;33.93;94108.28;4968900;28;20058;-75
2021/01/29 05:08:15;;;;;;;5.38;3.65;;;;;;;22.86;33.73;94096.88;4969437;28;20030;-75
2021/01/29 05:11:08;;;;;;;5.97;3.85;;;;;;;22.94;33.41;94082.84;4958436;28;20038;-74
2021/01/29 05:13:34;;;;;;;4.65;3.17;;;;;;;22.98;33.15;94094.13;4958895;28;20037;-74
2021/01/29 05:16:18;;;;;;;5.90;3.47;;;;;;;23.09;33.11;94088.44;4919112;28;20044;-73
2021/01/29 05:19:05;;;;;;;4.40;3.20;;;;;;;23.17;32.97;94089.25;4931458;28;20046;-73
2021/01/29 05:21:49;;;;;;;4.53;3.30;;;;;;;23.25;32.72;94090.03;4969886;28;20018;-72
2021/01/29 05:24:39;;;;;;;5.93;3.28;;;;;;;23.31;33.00;94087.91;4969425;28;20427;-73
2021/01/29 05:27:30;;;;;;;4.70;3.30;;;;;;;23.36;32.85;94100.66;4969808;28;20053;-74
2021/01/29 05:30:00;;;;;;;5.30;3.38;;;;;;;23.35;32.62;94112.09;4951112;28;20046;-73
2021/01/29 05:32:44;;;;;;;5.53;3.58;;;;;;;23.39;32.76;94132.31;4968808;28;20516;-73
2021/01/29 05:35:28;;;;;;;4.18;2.78;;;;;;;23.44;32.22;94106.94;4968762;28;20038;-74
2021/01/29 05:38:09;;;;;;;5.35;3.38;;;;;;;23.55;32.21;94117.56;4886154;28;20167;-74
2021/01/29 05:40:56;;;;;;;4.65;3.45;;;;;;;23.62;31.96;94112.19;4931574;29;20051;-75
2021/01/29 05:43:28;;;;;;;4.60;3.20;;;;;;;23.72;32.01;94126.09;4930764;29;20027;-73
2021/01/29 05:46:04;;;;;;;4.97;3.17;;;;;;;23.80;31.95;94132.38;4931827;29;20032;-74
2021/01/29 05:48:49;;;;;;;4.05;2.85;;;;;;;23.83;31.70;94098.59;4931243;29;20108;-74
2021/01/29 05:51:24;;;;;;;4.75;3.15;;;;;;;23.89;32.12;94119.72;4931564;29;20489;-74
2021/01/29 05:54:08;;;;;;;5.13;3.67;;;;;;;23.90;31.75;94121.19;4932074;29;20152;-74
2021/01/29 05:57:09;;;;;;;5.05;3.42;;;;;;;24.00;31.35;94135.78;4931243;29;20106;-73
2021/01/29 05:59:57;;;;;;;5.50;3.13;;;;;;;23.98;31.77;94110.34;4930377;29;20056;-72
2021/01/29 06:02:30;;;;;;;4.53;3.20;;;;;;;23.99;31.91;94145.25;4930315;29;20047;-74
2021/01/29 06:05:11;;;;;;;5.10;3.35;;;;;;;24.09;31.26;94154.41;4931845;29;20087;-72
2021/01/29 06:07:55;;;;;;;5.47;3.28;;;;;;;24.18;31.94;94151.19;4931804;29;20063;-75
2021/01/29 06:10:42;;;;;;;4.28;3.10;;;;;;;24.26;31.61;94146.53;4932789;29;20381;-75
2021/01/29 06:13:25;;;;;;;5.60;3.40;;;;;;;24.30;31.77;94146.91;4929338;29;20036;-75
2021/01/29 06:15:56;;;;;;;4.97;3.30;;;;;;;24.35;31.49;94132.44;4930067;29;20153;-75
2021/01/29 06:19:00;;;;;;;5.07;3.00;;;;;;;24.36;31.46;94139.34;4936080;29;20039;-79
2021/01/29 06:21:48;;;;;;;4.78;3.15;;;;;;;24.36;31.72;94134.63;4936850;29;20032;-74
2021/01/29 06:24:30;;;;;;;4.70;2.85;;;;;;;24.33;31.55;94118.59;4935410;29;20032;-77
2021/01/29 06:27:31;;;;;;;4.13;2.90;;;;;;;24.52;31.57;94151.81;4935283;29;20043;-78
2021/01/29 06:30:03;;;;;;;3.97;2.80;;;;;;;24.59;31.30;94145.69;4931779;29;20032;-73
2021/01/29 06:32:53;;;;;;;5.10;3.25;;;;;;;24.51;31.64;94133.97;4926939;29;20412;-77
2021/01/29 06:35:37;;;;;;;4.15;2.75;;;;;;;24.62;31.34;94144.59;4934905;29;20039;-76
2021/01/29 06:38:28;;;;;;;4.80;2.88;;;;;;;24.54;31.26;94136.38;4922340;28;20128;-75
2021/01/29 06:40:59;;;;;;;4.45;3.03;;;;;;;24.65;31.57;94173.53;4909728;29;20425;-74
2021/01/29 06:43:39;;;;;;;4.47;2.95;;;;;;;24.65;31.40;94127.13;4935623;29;20110;-73
2021/01/29 06:46:25;;;;;;;3.42;2.60;;;;;;;24.74;31.53;94173.03;4935653;29;20059;-73
2021/01/29 06:49:10;;;;;;;4.75;2.85;;;;;;;24.78;30.99;94146.84;4933070;29;20070;-74
2021/01/29 06:52:16;;;;;;;4.10;2.90;;;;;;;24.77;31.27;94161.78;4935256;29;20034;-75
2021/01/29 06:55:03;;;;;;;4.03;2.95;;;;;;;24.75;30.96;94152.66;4916301;29;20032;-76
2021/01/29 06:57:53;;;;;;;3.28;2.42;;;;;;;24.83;31.38;94165.81;4936375;29;20043;-76
2021/01/29 07:00:46;;;;;;;4.63;2.78;;;;;;;24.83;31.26;94165.81;4935603;29;20027;-75
2021/01/29 07:03:48;;;;;;;3.67;2.67;;;;;;;24.83;31.20;94165.81;4935279;29;20126;-78
2021/01/29 07:06:19;;;;;;;4.35;2.65;;;;;;;24.66;31.10;94161.34;4932942;29;20024;-76
2021/01/29 07:08:59;;;;;;;4.75;3.17;;;;;;;24.84;31.54;94166.56;4921907;29;20048;-75
2021/01/29 07:11:49;;;;;;;3.60;2.60;;;;;;;24.87;31.41;94181.84;4933894;29;20035;-75
2021/01/29 07:14:34;;;;;;;4.85;2.38;;;;;;;24.88;31.35;94167.66;4934634;29;20123;-74
2021/01/29 07:17:12;;;;;;;3.63;2.50;;;;;;;24.85;31.49;94157.81;4933724;29;20110;-74
2021/01/29 07:19:55;;;;;;;3.45;2.60;;;;;;;25.01;31.13;94159.38;4919634;29;20028;-72
2021/01/29 07:22:44;;;;;;;3.70;2.50;;;;;;;25.04;31.40;94169.22;4934405;29;20122;-74
2021/01/29 07:25:19;;;;;;;3.50;2.40;;;;;;;25.07;30.92;94161.97;4932506;29;20028;-72
2021/01/29 07:28:05;;;;;;;3.85;2.55;;;;;;;25.13;30.94;94193.31;4931648;29;20118;-72
2021/01/29 07:30:52;;;;;;;4.30;2.78;;;;;;;25.10;30.77;94175.28;4920485;29;20051;-71
2021/01/29 07:33:29;;;;;;;3.83;2.65;;;;;;;25.10;31.14;94178.00;4921816;29;20039;-72
2021/01/29 07:36:19;;;;;;;4.90;3.05;;;;;;;24.99;30.81;94178.31;4916994;29;20032;-73
2021/01/29 07:39:03;;;;;;;4.15;2.70;;;;;;;25.03;30.84;94170.50;4919273;29;20094;-72
2021/01/29 07:41:33;;;;;;;4.18;2.50;;;;;;;24.98;30.91;94154.97;4917248;29;20508;-72
2021/01/29 07:44:29;;;;;;;4.15;2.60;;;;;;;24.95;30.84;94161.50;4930193;29;20039;-70
2021/01/29 07:47:22;;;;;;;4.00;2.38;;;;;;;24.91;31.43;94161.13;4904619;29;20039;-72
2021/01/29 07:50:09;;;;;;;4.05;2.65;;;;;;;24.86;31.59;94181.13;4910363;29;20032;-72
2021/01/29 07:52:59;;;;;;;4.28;2.60;;;;;;;24.85;31.67;94157.09;4913116;29;20032;-72
2021/01/29 07:55:26;;;;;;;3.78;2.45;;;;;;;24.78;32.16;94157.06;4913253;29;20052;-72
2021/01/29 07:58:29;;;;;;;3.88;2.47;;;;;;;24.72;32.02;94170.84;4927245;29;20601;-72
2021/01/29 08:01:06;;;;;;;4.07;2.60;;;;;;;24.68;32.00;94147.91;4909045;29;20032;-71
2021/01/29 08:03:55;;;;;;;4.15;2.75;;;;;;;24.72;32.28;94170.84;4913273;29;20083;-71
2021/01/29 08:06:25;;;;;;;4.18;2.92;;;;;;;24.75;32.06;94158.84;4911163;29;20039;-71
2021/01/29 08:09:04;;;;;;;4.50;2.65;;;;;;;24.69;31.80;94143.91;4928587;29;20059;-71
2021/01/29 08:11:30;;;;;;;5.38;2.80;;;;;;;24.60;32.04;94147.13;4912581;29;20063;-71
2021/01/29 08:14:19;;;;;;;5.38;2.80;;;;;;;24.46;32.05;94170.34;4911731;29;20091;-72
2021/01/29 08:16:59;;;;;;;3.58;2.78;;;;;;;24.34;31.92;94169.91;4911638;29;20036;-74
2021/01/29 08:19:25;;;;;;;5.00;2.85;;;;;;;24.28;32.38;94165.09;4921673;29;20043;-71
2021/01/29 08:22:24;;;;;;;4.72;2.92;;;;;;;24.26;32.64;94179.28;4913931;29;20459;-71
2021/01/29 08:25:27;;;;;;;4.70;2.85;;;;;;;24.32;32.17;94185.34;4912512;29;20020;-71
2021/01/29 08:28:22;;;;;;;3.78;2.55;;;;;;;24.27;32.13;94186.19;4913607;29;20036;-71
2021/01/29 08:31:03;;;;;;;3.88;2.60;;;;;;;24.20;32.60;94192.34;4913097;29;20485;-70
2021/01/29 08:33:59;;;;;;;4.47;2.80;;;;;;;24.07;32.14;94184.22;4913338;29;20110;-70
2021/01/29 08:36:43;;;;;;;4.68;2.53;;;;;;;23.99;32.68;94182.69;4914346;29;20395;-70
2021/01/29 08:39:22;;;;;;;3.97;2.42;;;;;;;23.97;32.10;94202.31;4911936;29;20024;-70
2021/01/29 08:42:03;;;;;;;3.75;2.60;;;;;;;23.86;32.47;94180.75;4898366;29;20103;-70
2021/01/29 08:44:55;;;;;;;4.05;2.65;;;;;;;23.88;32.65;94200.06;4898034;29;20031;-71
2021/01/29 08:47:40;;;;;;;4.15;2.60;;;;;;;23.88;32.46;94200.06;4912427;29;20149;-70
2021/01/29 08:50:21;;;;;;;4.18;2.65;;;;;;;23.85;32.31;94186.03;4912479;29;20032;-70
2021/01/29 08:52:59;;;;;;;3.38;2.55;;;;;;;23.82;32.25;94189.81;4913996;29;20040;-70
2021/01/29 08:55:46;;;;;;;4.95;3.00;;;;;;;23.76;32.92;94208.28;4913537;29;20123;-70
2021/01/29 08:58:24;;;;;;;5.82;2.78;;;;;;;23.68;32.56;94199.31;4913333;29;20044;-70
2021/01/29 09:00:49;;;;;;;4.18;2.45;;;;;;;23.56;32.81;94190.63;4897758;29;20500;-69
2021/01/29 09:03:20;;;;;;;5.07;2.85;;;;;;;23.63;32.60;94200.13;4913249;29;20066;-70
2021/01/29 09:05:50;;;;;;;4.00;2.42;;;;;;;23.55;32.51;94199.34;4912381;29;20143;-70
2021/01/29 09:08:18;;;;;;;3.78;2.65;;;;;;;23.60;32.72;94220.28;4896300;29;20040;-70
2021/01/29 09:11:10;;;;;;;4.57;2.67;;;;;;;23.58;32.65;94220.06;4896960;29;20039;-70
2021/01/29 09:13:35;;;;;;;4.78;3.22;;;;;;;23.56;32.52;94211.72;4911953;29;20036;-71
2021/01/29 09:16:07;;;;;;;3.78;2.67;;;;;;;23.51;32.81;94204.38;4912313;29;20553;-70
2021/01/29 09:18:35;;;;;;;3.40;2.55;;;;;;;23.47;32.80;94190.34;4912875;29;20028;-70
2021/01/29 09:21:13;;;;;;;4.55;3.10;;;;;;;23.44;32.98;94180.50;4913472;29;20087;-70
2021/01/29 09:24:08;;;;;;;4.70;3.10;;;;;;;23.41;32.98;94211.53;4912111;29;20036;-71
2021/01/29 09:26:43;;;;;;;4.68;3.33;;;;;;;23.39;33.00;94193.00;4910115;29;20106;-70
2021/01/29 09:29:19;;;;;;;4.45;2.70;;;;;;;23.38;32.83;94188.06;4912553;29;20035;-70
2021/01/29 09:31:46;;;;;;;4.57;2.83;;;;;;;23.34;32.76;94174.03;4912025;29;20024;-70
2021/01/29 09:34:17;;;;;;;4.15;2.75;;;;;;;23.36;32.91;94176.97;4911694;29;20055;-70
2021/01/29 09:36:42;;;;;;;4.63;2.60;;;;;;;23.33;32.85;94178.00;4911741;29;20107;-69
2021/01/29 09:39:21;;;;;;;3.80;2.33;;;;;;;23.26;32.96;94156.13;4915437;29;20691;-71
2021/01/29 09:42:14;;;;;;;4.73;2.70;;;;;;;23.31;32.24;94158.75;4930017;29;20023;-70
2021/01/29 09:44:45;;;;;;;4.38;2.53;;;;;;;23.27;32.63;94171.94;4912450;29;20051;-70
2021/01/29 09:47:15;;;;;;;4.25;2.83;;;;;;;23.26;32.63;94162.34;4896170;29;20032;-70
2021/01/29 09:49:41;;;;;;;4.45;2.80;;;;;;;23.26;32.42;94170.50;4896679;29;20040;-70
2021/01/29 09:52:45;;;;;;;4.07;2.90;;;;;;;23.24;32.57;94170.28;4911520;29;20398;-70
2021/01/29 09:55:13;;;;;;;5.03;2.80;;;;;;;23.17;32.71;94164.75;4911700;29;20304;-70
2021/01/29 09:57:44;;;;;;;4.00;2.60;;;;;;;23.23;32.14;94174.28;4896025;29;20023;-70
2021/01/29 10:00:21;;;;;;;3.95;2.78;;;;;;;23.23;32.41;94151.75;4907632;29;20028;-71
2021/01/29 10:03:12;;;;;;;4.95;2.83;;;;;;;23.20;32.56;94164.44;4921449;29;20483;-70
2021/01/29 10:05:43;;;;;;;4.88;2.70;;;;;;;23.17;32.84;94142.97;4927343;29;20048;-70
2021/01/29 10:08:29;;;;;;;4.68;2.65;;;;;;;23.15;33.04;94154.41;4912248;29;20020;-71
2021/01/29 10:10:57;;;;;;;3.95;2.78;;;;;;;23.11;32.89;94156.72;4910933;29;20493;-72
2021/01/29 10:13:37;;;;;;;3.58;2.60;;;;;;;23.12;33.01;94155.47;4912584;29;20032;-75
2021/01/29 10:16:05;;;;;;;;;;;;;;;23.15;33.01;94154.41;4904994;29;20048;-74
2021/01/29 10:18:31;;;;;;;3.85;2.63;;;;;;;23.15;33.46;94140.81;4915769;29;19958;-75
2021/01/29 10:21:07;;;;;;;3.55;2.53;;;;;;;23.16;33.67;94138.78;4912267;29;20111;-81
2021/01/29 10:23:48;;;;;;;3.72;2.67;;;;;;;23.28;33.93;94154.34;4912333;29;20042;-76
2021/01/29 10:26:31;;;;;;;4.80;3.10;;;;;;;23.34;33.47;94140.63;4910564;29;20024;-71
2021/01/29 10:29:22;;;;;;;4.53;2.83;;;;;;;23.47;33.43;94133.84;4912738;29;20069;-74
2021/01/29 10:32:23;;;;;;;4.22;2.58;;;;;;;23.54;33.32;94132.44;4895827;29;20497;-74
2021/01/29 10:34:48;;;;;;;4.93;2.60;;;;;;;23.66;33.20;94152.75;4909738;29;20051;-72
2021/01/29 10:37:31;;;;;;;5.13;2.50;;;;;;;23.77;32.71;94127.97;4909679;29;20033;-72
2021/01/29 10:40:15;;;;;;;6.80;2.80;;;;;;;23.86;32.79;94128.97;4910545;29;20580;-72
2021/01/29 10:43:11;;;;;;;3.63;2.45;;;;;;;24.00;32.74;94130.31;4910533;29;20028;-71
2021/01/29 10:45:38;;;;;;;5.13;2.75;;;;;;;24.14;32.14;94129.00;4912089;29;20036;-73
2021/01/29 10:48:09;;;;;;;4.95;3.10;;;;;;;24.21;32.15;94128.31;4910718;29;20028;-71
2021/01/29 10:50:43;;;;;;;5.40;3.00;;;;;;;24.31;31.92;94129.28;4911896;29;20694;-73
2021/01/29 10:53:11;;;;;;;5.60;2.90;;;;;;;24.41;32.02;94103.00;4891779;29;20024;-71
2021/01/29 10:56:00;;;;;;;4.72;2.75;;;;;;;24.51;31.55;94112.88;4894777;29;20028;-74
2021/01/29 10:58:35;;;;;;;6.00;3.40;;;;;;;24.58;31.40;94100.53;4917314;29;20592;-71
2021/01/29 11:01:03;;;;;;;4.07;2.90;;;;;;;24.57;31.31;94094.34;4934754;29;20031;-73
2021/01/29 11:03:52;;;;;;;21.55;5.28;;;;;;;24.71;31.16;94092.22;4924415;29;20044;-73
2021/01/29 11:06:19;;;;;;;8.45;3.88;;;;;;;24.79;31.40;94088.25;4913725;29;20410;-74
2021/01/29 11:08:47;;;;;;;8.02;3.22;;;;;;;24.78;31.42;94069.69;4913489;29;20032;-74
2021/01/29 11:11:43;;;;;;;9.90;3.40;;;;;;;24.94;31.64;94077.38;4913496;29;20541;-73
2021/01/29 11:14:17;;;;;;;10.63;3.40;;;;;;;24.99;31.38;94060.88;4898011;29;20246;-72
2021/01/29 11:17:07;;;;;;;7.45;3.25;;;;;;;25.00;31.51;94070.50;4915488;29;20034;-73
2021/01/29 11:19:45;;;;;;;6.57;3.03;;;;;;;25.03;31.66;94058.50;4908568;29;20070;-72
2021/01/29 11:22:17;;;;;;;6.63;3.10;;;;;;;25.09;31.94;94078.19;4913256;29;20557;-73
2021/01/29 11:25:01;;;;;;;6.18;3.10;;;;;;;25.12;31.54;94063.44;4914762;29;20028;-73
2021/01/29 11:27:44;;;;;;;6.25;3.00;;;;;;;25.12;31.57;94065.44;4914632;29;20028;-76
2021/01/29 11:30:24;;;;;;;7.10;3.40;;;;;;;25.28;31.64;94067.66;4913701;29;20505;-73
2021/01/29 11:32:55;;;;;;;7.00;3.35;;;;;;;25.37;31.21;94048.00;4914098;29;20425;-77
2021/01/29 11:35:38;;;;;;;5.05;3.10;;;;;;;25.49;31.25;94049.09;4911205;29;20091;-75
2021/01/29 11:38:22;;;;;;;6.15;3.38;;;;;;;25.41;31.17;94021.00;4912583;29;20032;-74
2021/01/29 11:41:14;;;;;;;5.68;3.38;;;;;;;25.41;31.41;94021.00;4913848;29;20032;-78
2021/01/29 11:44:02;;;;;;;6.65;3.35;;;;;;;25.30;31.45;93999.50;4901711;29;20031;-75
2021/01/29 11:46:30;;;;;;;6.68;3.08;;;;;;;25.24;31.77;93990.03;4898636;29;20028;-74
2021/01/29 11:49:02;;;;;;;5.25;3.30;;;;;;;25.32;31.40;93984.03;4900637;29;20042;-75
2021/01/29 11:51:33;;;;;;;6.13;3.35;;;;;;;25.28;31.66;93963.81;4915234;29;20092;-74
2021/01/29 11:54:39;;;;;;;5.80;3.20;;;;;;;25.31;31.43;93972.94;4895527;29;20050;-77
2021/01/29 11:57:10;;;;;;;5.38;3.03;;;;;;;25.44;31.42;93966.00;4895194;29;20127;-77
2021/01/29 11:59:50;;;;;;;6.10;3.20;;;;;;;25.27;31.49;93935.00;4914799;29;20028;-80
2021/01/29 12:02:40;;;;;;;6.47;3.53;;;;;;;25.40;31.37;93959.44;4893936;29;20028;-78
2021/01/29 12:05:05;;;;;;;;;;;;;;;25.46;31.70;93962.72;4898552;29;20052;-71
2021/01/29 12:07:36;;;;;;;4.75;3.17;;;;;;;25.40;31.60;93948.50;4914738;29;19923;-71
2021/01/29 12:10:08;;;;;;;5.15;3.38;;;;;;;25.58;31.62;93947.41;4912162;29;20059;-71
2021/01/29 12:12:50;;;;;;;5.75;3.30;;;;;;;25.62;31.45;93936.78;4911043;29;20036;-71
2021/01/29 12:15:48;;;;;;;5.45;3.33;;;;;;;25.70;31.32;93943.03;4899237;29;20024;-71
2021/01/29 12:18:14;;;;;;;5.07;3.50;;;;;;;25.71;31.35;93928.06;4909757;29;20036;-71
2021/01/29 12:20:41;;;;;;;5.45;3.47;;;;;;;25.63;31.27;93906.16;4918750;29;20027;-71
2021/01/29 12:23:40;;;;;;;5.57;3.55;;;;;;;25.70;31.16;93918.41;4919079;29;20031;-71